createdAt,value
2022-12-26T00:00:18.514Z,91.62
2022-12-26T00:05:42.281Z,91.81
2022-12-26T00:10:46.035Z,91.99
2022-12-26T00:15:49.892Z,91.99
2022-12-26T00:20:54.632Z,91.96
2022-12-26T00:26:05.999Z,92.04
2022-12-26T00:31:12.766Z,91.79
2022-12-26T00:36:29.440Z,91.37
2022-12-26T00:41:33.733Z,91.40
2022-12-26T00:46:37.471Z,91.42
2022-12-26T00:51:41.244Z,91.46
2022-12-26T00:56:44.967Z,91.49
2022-12-26T01:01:48.738Z,91.52
2022-12-26T01:06:52.686Z,91.62
2022-12-26T01:11:56.399Z,91.58
2022-12-26T01:17:00.384Z,91.55
2022-12-26T01:22:04.219Z,91.72
2022-12-26T01:27:07.967Z,91.87
2022-12-26T01:32:11.718Z,91.83
2022-12-26T01:37:16.885Z,91.78
2022-12-26T01:42:23.053Z,91.80
2022-12-26T01:47:43.712Z,91.90
2022-12-26T01:52:48.250Z,91.88
2022-12-26T01:57:57.462Z,91.92
2022-12-26T02:03:19.671Z,92.06
2022-12-26T02:08:32.983Z,92.04
2022-12-26T02:13:37.444Z,92.03
2022-12-26T02:18:41.147Z,92.00
2022-12-26T02:24:06.652Z,91.99
2022-12-26T02:29:35.417Z,92.00
2022-12-26T02:34:54.337Z,91.99
2022-12-26T02:40:27.162Z,91.87
2022-12-26T02:46:18.741Z,91.73
2022-12-26T02:51:46.045Z,91.74
2022-12-26T02:57:11.737Z,91.76
2022-12-26T03:02:45.555Z,91.80
2022-12-26T03:08:08.520Z,91.90
2022-12-26T03:13:17.447Z,92.06
2022-12-26T03:18:58.595Z,92.03
2022-12-26T03:23:48.044Z,92.16
2022-12-26T03:28:51.959Z,92.29
2022-12-26T03:34:17.752Z,92.35
2022-12-26T03:39:52.296Z,92.25
2022-12-26T03:45:29.898Z,92.10
2022-12-26T03:50:57.082Z,92.15
2022-12-26T03:56:45.032Z,92.10
2022-12-26T04:02:30.444Z,92.04
2022-12-26T04:07:58.665Z,91.97
2022-12-26T04:13:23.804Z,91.98
2022-12-26T04:18:58.669Z,91.93
2022-12-26T04:24:29.163Z,91.99
2022-12-26T04:29:51.856Z,91.97
2022-12-26T04:35:26.658Z,92.10
2022-12-26T04:40:52.015Z,92.07
2022-12-26T04:45:55.821Z,92.08
2022-12-26T04:51:00.137Z,92.05
2022-12-26T04:56:03.902Z,92.07
2022-12-26T05:01:26.452Z,92.10
2022-12-26T05:06:49.447Z,92.18
2022-12-26T05:11:53.106Z,92.19
2022-12-26T05:17:15.364Z,92.22
2022-12-26T05:22:37.625Z,92.28
2022-12-26T05:28:02.350Z,92.39
2022-12-26T05:33:24.862Z,92.51
2022-12-26T05:38:28.470Z,92.56
2022-12-26T05:43:32.386Z,92.60
2022-12-26T05:48:36.003Z,92.55
2022-12-26T05:53:39.703Z,92.54
2022-12-26T05:58:43.435Z,92.60
2022-12-26T06:03:49.403Z,92.63
2022-12-26T06:08:55.625Z,92.65
2022-12-26T06:14:00.357Z,92.64
2022-12-26T06:19:04.109Z,92.56
2022-12-26T06:24:07.944Z,92.38
2022-12-26T06:29:11.632Z,92.51
2022-12-26T06:34:15.390Z,92.45
2022-12-26T06:39:19.177Z,92.11
2022-12-26T06:44:22.888Z,92.26
2022-12-26T06:49:32.443Z,92.14
2022-12-26T06:54:36.663Z,91.70
2022-12-26T06:59:40.474Z,91.21
2022-12-26T07:04:44.128Z,90.74
2022-12-26T07:09:47.824Z,90.45
2022-12-26T07:14:52.052Z,90.44
2022-12-26T07:19:57.118Z,89.92
2022-12-26T07:25:00.812Z,89.68
2022-12-26T07:30:04.894Z,89.36
2022-12-26T07:35:09.247Z,89.21
2022-12-26T07:40:13.855Z,89.02
2022-12-26T07:45:18.615Z,88.87
2022-12-26T07:50:24.075Z,88.54
2022-12-26T07:55:27.860Z,88.25
2022-12-26T08:00:31.735Z,88.19
2022-12-26T08:05:35.671Z,88.27
2022-12-26T08:10:39.540Z,88.11
2022-12-26T08:15:43.241Z,87.84
2022-12-26T08:20:46.902Z,87.59
2022-12-26T08:25:50.547Z,87.49
2022-12-26T08:30:54.225Z,87.30
2022-12-26T08:36:03.115Z,87.04
2022-12-26T08:41:07.262Z,87.05
2022-12-26T08:46:12.416Z,87.10
2022-12-26T08:51:19.279Z,86.98
2022-12-26T08:56:25.273Z,86.87
2022-12-26T09:01:31.533Z,87.01
2022-12-26T09:06:37.528Z,87.03
2022-12-26T09:11:41.851Z,87.07
2022-12-26T09:16:50.471Z,87.21
2022-12-26T09:22:14.954Z,87.10
2022-12-26T09:27:18.725Z,86.80
2022-12-26T09:32:22.314Z,86.74
2022-12-26T09:37:25.991Z,86.86
2022-12-26T09:42:51.088Z,86.60
2022-12-26T09:48:00.223Z,86.11
2022-12-26T09:53:18.587Z,85.93
2022-12-26T09:58:59.133Z,85.45
2022-12-26T10:04:09.270Z,85.04
2022-12-26T10:09:43.494Z,84.92
2022-12-26T10:14:59.047Z,84.09
2022-12-26T10:20:16.815Z,83.36
2022-12-26T10:25:30.360Z,83.19
2022-12-26T10:30:40.725Z,82.71
2022-12-26T10:35:46.804Z,82.28
2022-12-26T10:40:52.926Z,81.95
2022-12-26T10:46:24.390Z,82.02
2022-12-26T10:51:28.198Z,81.93
2022-12-26T10:56:32.677Z,81.90
2022-12-26T11:01:38.664Z,81.86
2022-12-26T11:06:43.497Z,81.67
2022-12-26T11:11:49.564Z,81.75
2022-12-26T11:16:53.335Z,81.94
2022-12-26T11:22:15.336Z,81.94
2022-12-26T11:27:23.512Z,81.88
2022-12-26T11:32:27.953Z,81.10
2022-12-26T11:37:37.962Z,80.88
2022-12-26T11:42:41.778Z,80.66
2022-12-26T11:47:46.395Z,80.54
2022-12-26T11:52:56.093Z,80.78
2022-12-26T11:58:09.100Z,80.68
2022-12-26T12:03:16.976Z,79.78
2022-12-26T12:08:33.447Z,79.32
2022-12-26T12:13:53.717Z,79.28
2022-12-26T12:19:28.265Z,78.90
2022-12-26T12:25:01.283Z,79.19
2022-12-26T12:30:24.563Z,79.29
2022-12-26T12:35:41.433Z,79.40
2022-12-26T12:40:51.739Z,79.65
2022-12-26T12:46:09.799Z,79.81
2022-12-26T12:51:25.732Z,79.85
2022-12-26T12:56:50.396Z,79.80
2022-12-26T13:02:00.478Z,79.73
2022-12-26T13:07:22.338Z,79.29
2022-12-26T13:12:38.990Z,78.85
2022-12-26T13:17:54.456Z,78.76
2022-12-26T13:23:21.406Z,78.76
2022-12-26T13:28:30.011Z,78.70
2022-12-26T13:33:34.583Z,78.92
2022-12-26T13:38:56.726Z,79.14
2022-12-26T13:44:03.308Z,79.21
2022-12-26T13:49:29.725Z,79.29
2022-12-26T13:54:33.882Z,79.46
2022-12-26T13:59:46.688Z,79.50
2022-12-26T14:05:11.359Z,79.75
2022-12-26T14:10:27.967Z,79.85
2022-12-26T14:15:39.655Z,79.98
2022-12-26T14:20:56.531Z,80.00
2022-12-26T14:26:14.975Z,80.06
2022-12-26T14:31:34.871Z,80.05
2022-12-26T14:37:06.505Z,80.20
2022-12-26T14:42:41.015Z,80.35
2022-12-26T14:47:48.649Z,80.42
2022-12-26T14:52:52.406Z,80.47
2022-12-26T14:57:56.568Z,80.55
2022-12-26T15:03:01.918Z,80.57
2022-12-26T15:08:20.842Z,80.63
2022-12-26T15:13:53.767Z,80.64
2022-12-26T15:19:20.761Z,80.69
2022-12-26T15:25:18.050Z,80.88
2022-12-26T15:30:18.522Z,80.99
2022-12-26T15:35:22.205Z,81.02
2022-12-26T15:40:29.617Z,81.09
2022-12-26T15:45:36.348Z,81.17
2022-12-26T15:51:11.075Z,81.27
2022-12-26T15:56:51.641Z,81.43
2022-12-26T16:01:55.833Z,81.48
2022-12-26T16:07:45.076Z,81.52
2022-12-26T16:12:58.870Z,81.61
2022-12-26T16:18:17.353Z,81.61
2022-12-26T16:23:26.134Z,81.77
2022-12-26T16:28:38.641Z,82.19
2022-12-26T16:33:43.664Z,82.48
2022-12-26T16:38:47.554Z,83.74
2022-12-26T16:43:54.483Z,84.28
2022-12-26T16:48:59.918Z,85.02
2022-12-26T16:54:16.866Z,84.98
2022-12-26T16:59:23.828Z,84.94
2022-12-26T17:04:29.747Z,85.58
2022-12-26T17:09:41.510Z,86.26
2022-12-26T17:14:48.249Z,86.03
2022-12-26T17:19:54.783Z,85.93
2022-12-26T17:25:29.822Z,85.92
2022-12-26T17:30:33.849Z,85.91
2022-12-26T17:36:25.363Z,86.11
2022-12-26T17:41:04.151Z,86.12
2022-12-26T17:46:11.110Z,86.26
2022-12-26T17:51:17.829Z,86.48
2022-12-26T17:56:24.634Z,86.69
2022-12-26T18:01:28.567Z,86.79
2022-12-26T18:06:32.550Z,87.04
2022-12-26T18:11:36.532Z,87.02
2022-12-26T18:16:40.477Z,87.27
2022-12-26T18:21:44.631Z,87.80
2022-12-26T18:26:48.995Z,88.10
2022-12-26T18:31:53.647Z,88.23
2022-12-26T18:36:57.594Z,88.32
2022-12-26T18:42:01.554Z,88.45
2022-12-26T18:47:05.453Z,88.54
2022-12-26T18:52:10.230Z,88.40
2022-12-26T18:57:20.629Z,88.22
2022-12-26T19:02:24.670Z,88.18
2022-12-26T19:07:29.175Z,87.96
2022-12-26T19:12:33.272Z,87.68
2022-12-26T19:17:39.861Z,87.79
2022-12-26T19:22:44.616Z,87.84
2022-12-26T19:27:49.761Z,87.88
2022-12-26T19:32:53.927Z,88.01
2022-12-26T19:37:58.992Z,88.08
2022-12-26T19:43:03.395Z,88.13
2022-12-26T19:48:07.573Z,88.12
2022-12-26T19:53:11.876Z,88.16
2022-12-26T19:58:16.954Z,88.24
2022-12-26T20:03:21.553Z,87.55
2022-12-26T20:08:25.979Z,87.58
2022-12-26T20:13:29.818Z,87.80
2022-12-26T20:18:35.843Z,88.00
2022-12-26T20:23:41.436Z,88.01
2022-12-26T20:28:47.257Z,87.98
2022-12-26T20:33:53.305Z,87.94
2022-12-26T20:39:02.731Z,88.08
2022-12-26T20:44:06.907Z,88.34
2022-12-26T20:49:11.517Z,88.42
2022-12-26T20:54:17.107Z,88.33
2022-12-26T20:59:24.097Z,88.33
2022-12-26T21:04:29.835Z,88.46
2022-12-26T21:09:42.518Z,88.41
2022-12-26T21:14:50.692Z,88.49
2022-12-26T21:19:56.149Z,88.58
2022-12-26T21:25:00.589Z,88.73
2022-12-26T21:30:05.411Z,88.71
2022-12-26T21:35:09.867Z,88.73
2022-12-26T21:40:16.021Z,88.89
2022-12-26T21:45:20.141Z,88.89
2022-12-26T21:50:24.283Z,89.00
2022-12-26T21:55:28.782Z,89.03
2022-12-26T22:00:34.144Z,89.11
2022-12-26T22:05:40.366Z,89.18
2022-12-26T22:11:05.221Z,89.19
2022-12-26T22:16:11.293Z,89.42
2022-12-26T22:21:21.533Z,89.46
2022-12-26T22:26:26.615Z,89.25
2022-12-26T22:31:33.514Z,89.04
2022-12-26T22:36:37.628Z,88.53
2022-12-26T22:41:41.601Z,88.59
2022-12-26T22:46:48.718Z,88.88
2022-12-26T22:51:53.132Z,89.01
2022-12-26T22:56:57.444Z,89.10
2022-12-26T23:02:02.463Z,89.18
2022-12-26T23:07:07.240Z,89.34
2022-12-26T23:12:30.409Z,89.35
2022-12-26T23:17:55.589Z,89.35
2022-12-26T23:22:59.745Z,88.48
2022-12-26T23:28:22.776Z,87.89
2022-12-26T23:33:26.561Z,88.59
2022-12-26T23:38:30.469Z,89.18
2022-12-26T23:43:35.281Z,88.83
2022-12-26T23:48:39.320Z,88.97
2022-12-26T23:53:43.077Z,89.30
2022-12-26T23:58:46.840Z,89.92
